Libertytown, MD (21762)

10:31 PM EST on November 26, 2014 (GMT -0500)
Walkersville | Change Station
CLOSE
Current Station
Personal Weather Station
Location: Walkersville, MD
Elevation: 308 ft
Nearby Weather Stations

Elev 308 ft 39.48 °N, 77.33 °W | Updated 6 minutes ago

Overcast
Overcast
33.1 °F
Feels Like 33 °F
N
0.0
Wind Variable Wind from WNW
Gusts 0.0 mph

Today
High -- | Low -- °F
--% Chance of Precip.
Yesterday
High -- | Low -- °F
Precip. -- in
7:05 AM 4:47 PM
Waxing Crescent, 25% visible
Pressure 30.02 in
Visibility 10.0 miles
Clouds Mostly Cloudy 2100 ft
Overcast 11000 ft
Windchill 33 °F
Dew Point 32 °F
Humidity 96%
Rainfall 0.79 in
Snow Depth Not available.
UV 0 out of 12
Pollen .10 out of 12
Air Quality Not available.
Flu Activity Not available.
METAR KFDK 270310Z AUTO 29004KT 10SM BKN021 OVC110 02/00 A3002 RMK AO2

More Conditions Fewer Conditions

Pressure 30.02 in
Visibility 10.0 miles
Clouds Mostly Cloudy 2100 ft
Overcast 11000 ft
Windchill 33 °F
Dew Point 32 °F
Humidity 96%
Rainfall 0.79 in
Snow Depth Not available.
UV 0 out of 12
Pollen .10 out of 12
Air Quality Not available.
Flu Activity Not available.
METAR KFDK 270310Z AUTO 29004KT 10SM BKN021 OVC110 02/00 A3002 RMK AO2

More Conditions Fewer Conditions

10-Day Weather Forecast

Almanac

Astronomy

Nov. 26, 2014 Rise Set
Actual Time
Civil Twilight
Nautical Twilight
Astronomical Twilight
Moon
Length of Visible Light
Length of Day
Tomorrow will be .
, % of the Moon is Illuminated

Today's Extremes

State Highs State Lows

Community

WunderPhotos

Upload Photos

1,773,949 photos uploaded!

WunderBlogs® & News

Nearby

Air Quality

  Air Quality AQ Index Pollutant
Not available.

Snow Depth

Station Depth Elevation

Earthquake Activity

City Distance Mag. Time & Date
Minimum magnitude displayed is 2.5.

Coastal Water Temperatures

Place Temperature

Nearby Weather Stations